sensor_id;sensor_type;location;lat;lon;timestamp;pressure;altitude;pressure_sealevel;temperature;humidity
77366;BME280;66430;50.182;11.704;2023-04-08T00:00:40;94765.04;;;7.06;32.76
77366;BME280;66430;50.182;11.704;2023-04-08T00:03:04;94764.87;;;7.66;32.78
77366;BME280;66430;50.182;11.704;2023-04-08T00:05:25;94762.03;;;7.41;32.99
77366;BME280;66430;50.182;11.704;2023-04-08T00:07:48;94762.47;;;7.40;33.06
77366;BME280;66430;50.182;11.704;2023-04-08T00:10:13;94759.48;;;7.54;32.67
77366;BME280;66430;50.182;11.704;2023-04-08T00:12:45;94758.17;;;7.79;32.89
77366;BME280;66430;50.182;11.704;2023-04-08T00:14:55;94759.11;;;7.63;32.80
77366;BME280;66430;50.182;11.704;2023-04-08T00:17:21;94754.94;;;7.46;32.68
77366;BME280;66430;50.182;11.704;2023-04-08T00:19:46;94756.82;;;7.52;32.75
77366;BME280;66430;50.182;11.704;2023-04-08T00:22:26;94755.45;;;7.23;32.89
77366;BME280;66430;50.182;11.704;2023-04-08T00:24:36;94756.16;;;7.26;32.79
77366;BME280;66430;50.182;11.704;2023-04-08T00:27:02;94755.83;;;7.26;32.92
77366;BME280;66430;50.182;11.704;2023-04-08T00:29:28;94753.82;;;6.72;33.48
77366;BME280;66430;50.182;11.704;2023-04-08T00:31:52;94759.89;;;6.72;33.52
77366;BME280;66430;50.182;11.704;2023-04-08T00:34:18;94759.02;;;6.29;34.07
77366;BME280;66430;50.182;11.704;2023-04-08T00:36:44;94762.78;;;6.55;34.11
77366;BME280;66430;50.182;11.704;2023-04-08T00:39:08;94762.64;;;6.39;33.89
77366;BME280;66430;50.182;11.704;2023-04-08T00:41:34;94758.53;;;7.08;33.74
77366;BME280;66430;50.182;11.704;2023-04-08T00:43:59;94757.82;;;6.56;33.58
77366;BME280;66430;50.182;11.704;2023-04-08T00:46:25;94759.11;;;6.88;34.20
77366;BME280;66430;50.182;11.704;2023-04-08T00:48:50;94761.07;;;6.55;34.82
77366;BME280;66430;50.182;11.704;2023-04-08T00:51:15;94761.86;;;6.16;35.12
77366;BME280;66430;50.182;11.704;2023-04-08T00:53:42;94763.83;;;5.84;35.69
77366;BME280;66430;50.182;11.704;2023-04-08T00:56:07;94764.11;;;5.62;35.66
77366;BME280;66430;50.182;11.704;2023-04-08T00:58:32;94761.28;;;5.43;36.43
77366;BME280;66430;50.182;11.704;2023-04-08T01:01:04;94761.42;;;5.25;37.33
77366;BME280;66430;50.182;11.704;2023-04-08T01:03:31;94763.44;;;5.03;37.84
77366;BME280;66430;50.182;11.704;2023-04-08T01:05:54;94762.06;;;5.14;37.49
77366;BME280;66430;50.182;11.704;2023-04-08T01:08:15;94758.86;;;5.47;36.95
77366;BME280;66430;50.182;11.704;2023-04-08T01:10:40;94763.66;;;5.16;38.00
77366;BME280;66430;50.182;11.704;2023-04-08T01:13:07;94764.52;;;5.33;38.46
77366;BME280;66430;50.182;11.704;2023-04-08T01:15:30;94763.98;;;4.86;37.70
77366;BME280;66430;50.182;11.704;2023-04-08T01:17:55;94759.33;;;4.72;37.56
77366;BME280;66430;50.182;11.704;2023-04-08T01:20:21;94759.48;;;5.01;38.35
77366;BME280;66430;50.182;11.704;2023-04-08T01:22:57;94761.08;;;5.06;38.72
77366;BME280;66430;50.182;11.704;2023-04-08T01:25:17;94760.14;;;4.90;38.61
77366;BME280;66430;50.182;11.704;2023-04-08T01:27:37;94760.35;;;4.97;38.96
77366;BME280;66430;50.182;11.704;2023-04-08T01:30:03;94758.90;;;5.05;38.51
77366;BME280;66430;50.182;11.704;2023-04-08T01:32:28;94757.85;;;5.48;38.06
77366;BME280;66430;50.182;11.704;2023-04-08T01:34:53;94756.75;;;4.98;38.19
77366;BME280;66430;50.182;11.704;2023-04-08T01:37:18;94753.34;;;4.91;38.39
77366;BME280;66430;50.182;11.704;2023-04-08T01:39:43;94758.42;;;5.35;38.87
77366;BME280;66430;50.182;11.704;2023-04-08T01:42:09;94753.39;;;5.33;38.48
77366;BME280;66430;50.182;11.704;2023-04-08T01:44:35;94756.90;;;5.45;38.72
77366;BME280;66430;50.182;11.704;2023-04-08T01:47:00;94753.19;;;5.50;37.89
77366;BME280;66430;50.182;11.704;2023-04-08T01:49:25;94755.93;;;5.83;38.23
77366;BME280;66430;50.182;11.704;2023-04-08T01:51:51;94754.59;;;5.91;37.71
77366;BME280;66430;50.182;11.704;2023-04-08T01:54:15;94756.65;;;5.77;37.41
77366;BME280;66430;50.182;11.704;2023-04-08T01:56:41;94752.40;;;6.21;37.53
77366;BME280;66430;50.182;11.704;2023-04-08T01:59:09;94750.24;;;5.94;38.09
77366;BME280;66430;50.182;11.704;2023-04-08T02:01:32;94758.32;;;5.55;38.67
77366;BME280;66430;50.182;11.704;2023-04-08T02:03:56;94755.58;;;5.43;38.33
77366;BME280;66430;50.182;11.704;2023-04-08T02:06:21;94760.08;;;5.31;38.83
77366;BME280;66430;50.182;11.704;2023-04-08T02:08:46;94760.59;;;5.39;39.00
77366;BME280;66430;50.182;11.704;2023-04-08T02:11:11;94758.72;;;5.51;38.98
77366;BME280;66430;50.182;11.704;2023-04-08T02:13:36;94760.98;;;5.85;38.63
77366;BME280;66430;50.182;11.704;2023-04-08T02:16:09;94760.73;;;5.61;39.22
77366;BME280;66430;50.182;11.704;2023-04-08T02:18:28;94762.03;;;5.17;39.18
77366;BME280;66430;50.182;11.704;2023-04-08T02:20:58;94762.35;;;5.58;39.51
77366;BME280;66430;50.182;11.704;2023-04-08T02:23:21;94760.29;;;5.30;38.86
77366;BME280;66430;50.182;11.704;2023-04-08T02:25:45;94763.86;;;5.28;39.13
77366;BME280;66430;50.182;11.704;2023-04-08T02:28:10;94762.73;;;5.46;38.81
77366;BME280;66430;50.182;11.704;2023-04-08T02:30:35;94761.79;;;5.88;38.81
77366;BME280;66430;50.182;11.704;2023-04-08T02:33:01;94760.89;;;5.73;38.61
77366;BME280;66430;50.182;11.704;2023-04-08T02:35:25;94763.65;;;5.26;39.25
77366;BME280;66430;50.182;11.704;2023-04-08T02:37:50;94765.57;;;5.54;38.62
77366;BME280;66430;50.182;11.704;2023-04-08T02:40:25;94768.63;;;6.00;38.50
77366;BME280;66430;50.182;11.704;2023-04-08T02:42:41;94768.84;;;5.25;39.03
77366;BME280;66430;50.182;11.704;2023-04-08T02:45:07;94769.32;;;5.75;39.28
77366;BME280;66430;50.182;11.704;2023-04-08T02:47:31;94769.88;;;5.04;39.90
77366;BME280;66430;50.182;11.704;2023-04-08T02:49:57;94770.25;;;5.45;39.82
77366;BME280;66430;50.182;11.704;2023-04-08T02:52:22;94771.20;;;4.94;39.74
77366;BME280;66430;50.182;11.704;2023-04-08T02:54:47;94774.54;;;5.40;40.02
77366;BME280;66430;50.182;11.704;2023-04-08T02:57:12;94772.32;;;5.46;39.92
77366;BME280;66430;50.182;11.704;2023-04-08T02:59:38;94776.55;;;5.50;39.88
77366;BME280;66430;50.182;11.704;2023-04-08T03:02:09;94775.06;;;5.34;39.96
77366;BME280;66430;50.182;11.704;2023-04-08T03:04:28;94774.82;;;5.62;39.63
77366;BME280;66430;50.182;11.704;2023-04-08T03:06:53;94774.88;;;4.99;39.79
77366;BME280;66430;50.182;11.704;2023-04-08T03:09:19;94773.41;;;5.49;39.84
77366;BME280;66430;50.182;11.704;2023-04-08T03:11:44;94773.73;;;5.16;40.38
77366;BME280;66430;50.182;11.704;2023-04-08T03:14:09;94773.85;;;5.09;40.45
77366;BME280;66430;50.182;11.704;2023-04-08T03:16:35;94775.31;;;4.91;40.63
77366;BME280;66430;50.182;11.704;2023-04-08T03:19:01;94776.03;;;5.06;40.69
77366;BME280;66430;50.182;11.704;2023-04-08T03:21:26;94775.60;;;5.13;40.52
77366;BME280;66430;50.182;11.704;2023-04-08T03:23:52;94774.02;;;5.31;40.23
77366;BME280;66430;50.182;11.704;2023-04-08T03:26:18;94775.11;;;4.80;40.33
77366;BME280;66430;50.182;11.704;2023-04-08T03:28:43;94771.13;;;5.26;40.45
77366;BME280;66430;50.182;11.704;2023-04-08T03:31:08;94773.21;;;5.28;40.40
77366;BME280;66430;50.182;11.704;2023-04-08T03:33:33;94771.82;;;5.37;40.33
77366;BME280;66430;50.182;11.704;2023-04-08T03:35:59;94774.23;;;5.42;40.02
77366;BME280;66430;50.182;11.704;2023-04-08T03:38:24;94774.58;;;5.54;39.94
77366;BME280;66430;50.182;11.704;2023-04-08T03:40:49;94775.20;;;5.67;39.82
77366;BME280;66430;50.182;11.704;2023-04-08T03:43:22;94775.91;;;5.62;40.16
77366;BME280;66430;50.182;11.704;2023-04-08T03:45:41;94775.78;;;5.25;39.70
77366;BME280;66430;50.182;11.704;2023-04-08T03:48:06;94779.76;;;5.55;40.02
77366;BME280;66430;50.182;11.704;2023-04-08T03:50:31;94780.49;;;5.38;39.88
77366;BME280;66430;50.182;11.704;2023-04-08T03:52:57;94780.88;;;5.54;40.10
77366;BME280;66430;50.182;11.704;2023-04-08T03:55:22;94783.62;;;5.27;40.76
77366;BME280;66430;50.182;11.704;2023-04-08T03:57:48;94784.55;;;5.44;40.42
77366;BME280;66430;50.182;11.704;2023-04-08T04:00:14;94784.18;;;5.11;40.95
77366;BME280;66430;50.182;11.704;2023-04-08T04:02:39;94789.23;;;5.29;40.75
77366;BME280;66430;50.182;11.704;2023-04-08T04:05:06;94790.93;;;5.28;40.95
77366;BME280;66430;50.182;11.704;2023-04-08T04:07:31;94791.19;;;5.20;40.69
77366;BME280;66430;50.182;11.704;2023-04-08T04:09:55;94789.46;;;4.97;40.71
77366;BME280;66430;50.182;11.704;2023-04-08T04:12:20;94788.25;;;4.96;40.74
77366;BME280;66430;50.182;11.704;2023-04-08T04:14:45;94786.12;;;5.35;40.91
77366;BME280;66430;50.182;11.704;2023-04-08T04:17:11;94789.48;;;5.32;41.17
77366;BME280;66430;50.182;11.704;2023-04-08T04:19:36;94788.80;;;5.20;41.14
77366;BME280;66430;50.182;11.704;2023-04-08T04:22:03;94791.31;;;4.82;41.02
77366;BME280;66430;50.182;11.704;2023-04-08T04:24:27;94793.31;;;5.05;41.38
77366;BME280;66430;50.182;11.704;2023-04-08T04:26:53;94795.70;;;4.91;41.78
77366;BME280;66430;50.182;11.704;2023-04-08T04:29:18;94797.31;;;5.03;41.46
77366;BME280;66430;50.182;11.704;2023-04-08T04:31:43;94800.97;;;5.00;41.29
77366;BME280;66430;50.182;11.704;2023-04-08T04:34:08;94802.82;;;5.15;40.95
77366;BME280;66430;50.182;11.704;2023-04-08T04:36:33;94805.52;;;5.16;41.23
77366;BME280;66430;50.182;11.704;2023-04-08T04:38:59;94803.32;;;5.30;41.21
77366;BME280;66430;50.182;11.704;2023-04-08T04:41:26;94801.97;;;4.96;41.77
77366;BME280;66430;50.182;11.704;2023-04-08T04:43:49;94803.31;;;4.80;42.06
77366;BME280;66430;50.182;11.704;2023-04-08T04:46:15;94808.11;;;4.66;42.82
77366;BME280;66430;50.182;11.704;2023-04-08T04:48:40;94805.97;;;4.49;42.84
77366;BME280;66430;50.182;11.704;2023-04-08T04:51:06;94804.79;;;4.50;43.24
77366;BME280;66430;50.182;11.704;2023-04-08T04:53:32;94807.67;;;4.82;43.33
77366;BME280;66430;50.182;11.704;2023-04-08T04:55:57;94808.15;;;4.39;43.26
77366;BME280;66430;50.182;11.704;2023-04-08T04:58:22;94813.01;;;4.48;43.69
77366;BME280;66430;50.182;11.704;2023-04-08T05:00:47;94815.99;;;4.35;43.93
77366;BME280;66430;50.182;11.704;2023-04-08T05:03:13;94814.68;;;4.29;43.71
77366;BME280;66430;50.182;11.704;2023-04-08T05:05:39;94821.25;;;4.43;44.07
77366;BME280;66430;50.182;11.704;2023-04-08T05:08:04;94821.66;;;4.24;44.65
77366;BME280;66430;50.182;11.704;2023-04-08T05:10:29;94821.84;;;4.13;44.92
77366;BME280;66430;50.182;11.704;2023-04-08T05:12:54;94820.57;;;4.58;44.72
77366;BME280;66430;50.182;11.704;2023-04-08T05:15:20;94821.61;;;4.98;44.21
77366;BME280;66430;50.182;11.704;2023-04-08T05:17:45;94823.12;;;4.07;44.99
77366;BME280;66430;50.182;11.704;2023-04-08T05:20:10;94827.19;;;4.12;45.91
77366;BME280;66430;50.182;11.704;2023-04-08T05:22:35;94830.10;;;4.11;45.69
77366;BME280;66430;50.182;11.704;2023-04-08T05:25:01;94833.38;;;4.37;45.35
77366;BME280;66430;50.182;11.704;2023-04-08T05:27:26;94839.35;;;3.78;46.36
77366;BME280;66430;50.182;11.704;2023-04-08T05:29:51;94840.71;;;3.58;47.52
77366;BME280;66430;50.182;11.704;2023-04-08T05:32:17;94846.91;;;3.32;48.16
77366;BME280;66430;50.182;11.704;2023-04-08T05:34:43;94846.96;;;3.51;48.50
77366;BME280;66430;50.182;11.704;2023-04-08T05:37:08;94852.83;;;3.39;48.87
77366;BME280;66430;50.182;11.704;2023-04-08T05:39:33;94855.88;;;3.32;49.70
77366;BME280;66430;50.182;11.704;2023-04-08T05:41:59;94856.79;;;3.64;49.26
77366;BME280;66430;50.182;11.704;2023-04-08T05:44:24;94854.48;;;3.10;49.32
77366;BME280;66430;50.182;11.704;2023-04-08T05:46:49;94851.01;;;3.83;49.16
77366;BME280;66430;50.182;11.704;2023-04-08T05:49:17;94858.29;;;3.73;48.71
77366;BME280;66430;50.182;11.704;2023-04-08T05:51:40;94855.82;;;3.66;48.45
77366;BME280;66430;50.182;11.704;2023-04-08T05:54:06;94862.94;;;3.65;48.95
77366;BME280;66430;50.182;11.704;2023-04-08T05:56:31;94863.73;;;3.85;48.84
77366;BME280;66430;50.182;11.704;2023-04-08T05:58:56;94860.49;;;3.65;48.76
77366;BME280;66430;50.182;11.704;2023-04-08T06:01:22;94862.12;;;3.59;49.38
77366;BME280;66430;50.182;11.704;2023-04-08T06:03:47;94865.64;;;4.16;48.37
77366;BME280;66430;50.182;11.704;2023-04-08T06:06:12;94869.93;;;3.56;49.49
77366;BME280;66430;50.182;11.704;2023-04-08T06:08:38;94875.01;;;3.79;49.76
77366;BME280;66430;50.182;11.704;2023-04-08T06:11:04;94877.93;;;3.33;50.33
77366;BME280;66430;50.182;11.704;2023-04-08T06:13:29;94874.29;;;3.92;50.05
77366;BME280;66430;50.182;11.704;2023-04-08T06:15:54;94875.44;;;3.96;49.30
77366;BME280;66430;50.182;11.704;2023-04-08T06:18:20;94875.02;;;4.46;48.56
77366;BME280;66430;50.182;11.704;2023-04-08T06:20:47;94881.92;;;4.32;48.24
77366;BME280;66430;50.182;11.704;2023-04-08T06:23:11;94876.23;;;4.35;48.34
77366;BME280;66430;50.182;11.704;2023-04-08T06:25:37;94881.25;;;4.05;48.93
77366;BME280;66430;50.182;11.704;2023-04-08T06:28:02;94887.35;;;4.38;48.85
77366;BME280;66430;50.182;11.704;2023-04-08T06:30:28;94885.64;;;4.49;48.23
77366;BME280;66430;50.182;11.704;2023-04-08T06:32:58;94883.87;;;4.27;48.42
77366;BME280;66430;50.182;11.704;2023-04-08T06:35:18;94882.53;;;4.12;49.23
77366;BME280;66430;50.182;11.704;2023-04-08T06:37:44;94885.89;;;4.25;49.24
77366;BME280;66430;50.182;11.704;2023-04-08T06:40:10;94891.99;;;4.19;48.92
77366;BME280;66430;50.182;11.704;2023-04-08T06:42:35;94896.58;;;4.19;49.03
77366;BME280;66430;50.182;11.704;2023-04-08T06:45:01;94897.06;;;4.09;49.40
77366;BME280;66430;50.182;11.704;2023-04-08T06:47:26;94901.64;;;4.23;49.39
77366;BME280;66430;50.182;11.704;2023-04-08T06:49:51;94904.95;;;3.92;49.99
77366;BME280;66430;50.182;11.704;2023-04-08T06:52:17;94898.73;;;4.01;50.70
77366;BME280;66430;50.182;11.704;2023-04-08T06:54:42;94902.50;;;3.94;50.49
77366;BME280;66430;50.182;11.704;2023-04-08T06:57:08;94905.67;;;4.19;49.48
77366;BME280;66430;50.182;11.704;2023-04-08T06:59:33;94906.36;;;4.74;48.27
77366;BME280;66430;50.182;11.704;2023-04-08T07:01:58;94906.87;;;4.51;48.11
77366;BME280;66430;50.182;11.704;2023-04-08T07:04:24;94903.94;;;5.09;47.76
77366;BME280;66430;50.182;11.704;2023-04-08T07:06:50;94908.60;;;4.74;48.13
77366;BME280;66430;50.182;11.704;2023-04-08T07:09:15;94915.80;;;4.75;48.88
77366;BME280;66430;50.182;11.704;2023-04-08T07:11:41;94912.77;;;4.53;49.01
77366;BME280;66430;50.182;11.704;2023-04-08T07:14:15;94912.64;;;4.60;48.21
77366;BME280;66430;50.182;11.704;2023-04-08T07:16:32;94909.17;;;5.00;47.87
77366;BME280;66430;50.182;11.704;2023-04-08T07:18:58;94915.39;;;5.20;47.29
77366;BME280;66430;50.182;11.704;2023-04-08T07:21:23;94914.10;;;5.26;47.53
77366;BME280;66430;50.182;11.704;2023-04-08T07:23:49;94909.68;;;5.10;47.79
77366;BME280;66430;50.182;11.704;2023-04-08T07:26:14;94922.37;;;4.77;48.33
77366;BME280;66430;50.182;11.704;2023-04-08T07:28:41;94923.51;;;4.59;49.30
77366;BME280;66430;50.182;11.704;2023-04-08T07:31:11;94931.85;;;4.35;49.53
77366;BME280;66430;50.182;11.704;2023-04-08T07:33:32;94935.58;;;4.69;49.29
77366;BME280;66430;50.182;11.704;2023-04-08T07:35:57;94938.65;;;4.78;48.60
77366;BME280;66430;50.182;11.704;2023-04-08T07:38:23;94942.46;;;4.87;48.41
77366;BME280;66430;50.182;11.704;2023-04-08T07:40:48;94939.99;;;5.17;47.98
77366;BME280;66430;50.182;11.704;2023-04-08T07:43:13;94940.01;;;5.20;48.28
77366;BME280;66430;50.182;11.704;2023-04-08T07:45:39;94938.11;;;5.03;48.29
77366;BME280;66430;50.182;11.704;2023-04-08T07:48:05;94941.20;;;5.30;48.22
77366;BME280;66430;50.182;11.704;2023-04-08T07:50:30;94934.64;;;5.26;48.57
77366;BME280;66430;50.182;11.704;2023-04-08T07:52:56;94934.17;;;5.62;47.36
77366;BME280;66430;50.182;11.704;2023-04-08T07:55:21;94936.25;;;5.73;47.16
77366;BME280;66430;50.182;11.704;2023-04-08T07:57:56;94941.31;;;5.26;47.10
77366;BME280;66430;50.182;11.704;2023-04-08T08:00:13;94951.28;;;5.65;46.90
77366;BME280;66430;50.182;11.704;2023-04-08T08:02:38;94952.60;;;5.46;47.67
77366;BME280;66430;50.182;11.704;2023-04-08T08:05:04;94940.97;;;5.65;46.63
77366;BME280;66430;50.182;11.704;2023-04-08T08:07:29;94946.91;;;5.65;46.31
77366;BME280;66430;50.182;11.704;2023-04-08T08:09:54;94947.92;;;5.67;47.35
77366;BME280;66430;50.182;11.704;2023-04-08T08:12:22;94947.09;;;5.85;47.09
77366;BME280;66430;50.182;11.704;2023-04-08T08:14:47;94951.04;;;5.76;46.83
77366;BME280;66430;50.182;11.704;2023-04-08T08:17:11;94961.55;;;5.30;46.64
77366;BME280;66430;50.182;11.704;2023-04-08T08:19:37;94965.63;;;5.67;46.65
77366;BME280;66430;50.182;11.704;2023-04-08T08:22:03;94965.92;;;5.59;46.68
77366;BME280;66430;50.182;11.704;2023-04-08T08:24:29;94969.55;;;5.51;46.45
77366;BME280;66430;50.182;11.704;2023-04-08T08:26:54;94965.01;;;5.73;46.36
77366;BME280;66430;50.182;11.704;2023-04-08T08:29:20;94963.01;;;5.92;45.28
77366;BME280;66430;50.182;11.704;2023-04-08T08:31:45;94970.67;;;5.99;45.38
77366;BME280;66430;50.182;11.704;2023-04-08T08:34:11;94974.36;;;6.19;45.12
77366;BME280;66430;50.182;11.704;2023-04-08T08:36:36;94972.24;;;6.21;45.23
77366;BME280;66430;50.182;11.704;2023-04-08T08:39:01;94973.91;;;6.40;45.11
77366;BME280;66430;50.182;11.704;2023-04-08T08:41:32;94978.96;;;6.41;44.83
77366;BME280;66430;50.182;11.704;2023-04-08T08:43:53;94980.93;;;6.11;45.12
77366;BME280;66430;50.182;11.704;2023-04-08T08:46:17;94985.91;;;6.14;45.25
77366;BME280;66430;50.182;11.704;2023-04-08T08:48:43;94987.64;;;6.08;45.37
77366;BME280;66430;50.182;11.704;2023-04-08T08:51:09;94999.60;;;6.10;45.18
77366;BME280;66430;50.182;11.704;2023-04-08T08:53:34;94996.14;;;6.41;45.31
77366;BME280;66430;50.182;11.704;2023-04-08T08:56:00;95000.64;;;6.19;45.33
77366;BME280;66430;50.182;11.704;2023-04-08T08:58:26;95005.69;;;6.21;45.42
77366;BME280;66430;50.182;11.704;2023-04-08T09:00:51;95007.32;;;6.52;45.01
77366;BME280;66430;50.182;11.704;2023-04-08T09:03:17;95003.02;;;6.48;44.89
77366;BME280;66430;50.182;11.704;2023-04-08T09:05:48;95000.84;;;6.29;45.85
77366;BME280;66430;50.182;11.704;2023-04-08T09:10:32;95005.14;;;6.96;44.46
77366;BME280;66430;50.182;11.704;2023-04-08T09:12:58;95006.79;;;6.99;44.74
77366;BME280;66430;50.182;11.704;2023-04-08T09:15:23;95011.11;;;5.99;46.04
77366;BME280;66430;50.182;11.704;2023-04-08T09:17:49;95015.08;;;5.99;46.30
77366;BME280;66430;50.182;11.704;2023-04-08T09:20:15;95018.32;;;6.42;46.52
77366;BME280;66430;50.182;11.704;2023-04-08T09:22:53;95017.56;;;6.28;45.92
77366;BME280;66430;50.182;11.704;2023-04-08T09:27:35;95023.36;;;5.90;46.42
77366;BME280;66430;50.182;11.704;2023-04-08T09:32:23;95028.79;;;6.76;45.30
77366;BME280;66430;50.182;11.704;2023-04-08T09:34:48;95031.84;;;6.89;44.89
77366;BME280;66430;50.182;11.704;2023-04-08T09:37:14;95032.24;;;6.34;45.75
77366;BME280;66430;50.182;11.704;2023-04-08T09:39:40;95037.29;;;6.08;46.15
77366;BME280;66430;50.182;11.704;2023-04-08T09:42:08;95033.12;;;5.95;46.03
77366;BME280;66430;50.182;11.704;2023-04-08T09:44:32;95032.65;;;6.21;46.01
77366;BME280;66430;50.182;11.704;2023-04-08T09:47:04;95032.43;;;6.61;45.55
77366;BME280;66430;50.182;11.704;2023-04-08T09:49:26;95025.10;;;6.47;44.55
77366;BME280;66430;50.182;11.704;2023-04-08T09:51:52;95025.25;;;6.67;44.90
77366;BME280;66430;50.182;11.704;2023-04-08T09:54:14;95023.29;;;6.90;44.85
77366;BME280;66430;50.182;11.704;2023-04-08T09:56:43;95021.80;;;6.46;44.75
77366;BME280;66430;50.182;11.704;2023-04-08T09:59:10;95023.67;;;6.71;44.47
77366;BME280;66430;50.182;11.704;2023-04-08T10:01:35;95029.35;;;6.77;44.74
77366;BME280;66430;50.182;11.704;2023-04-08T10:03:55;95025.50;;;7.07;43.96
77366;BME280;66430;50.182;11.704;2023-04-08T10:06:22;95027.45;;;7.08;44.34
77366;BME280;66430;50.182;11.704;2023-04-08T10:08:46;95029.30;;;6.84;43.99
77366;BME280;66430;50.182;11.704;2023-04-08T10:11:13;95034.70;;;7.13;44.43
77366;BME280;66430;50.182;11.704;2023-04-08T10:13:38;95038.56;;;7.16;43.98
77366;BME280;66430;50.182;11.704;2023-04-08T10:16:18;95042.57;;;7.39;43.71
77366;BME280;66430;50.182;11.704;2023-04-08T10:18:31;95038.64;;;6.95;43.79
77366;BME280;66430;50.182;11.704;2023-04-08T10:20:54;95042.75;;;6.82;44.52
77366;BME280;66430;50.182;11.704;2023-04-08T10:25:46;95057.08;;;6.58;46.22
77366;BME280;66430;50.182;11.704;2023-04-08T10:28:24;95051.12;;;6.15;46.19
77366;BME280;66430;50.182;11.704;2023-04-08T10:30:42;95049.33;;;6.25;46.27
77366;BME280;66430;50.182;11.704;2023-04-08T10:33:09;95048.49;;;6.49;46.22
77366;BME280;66430;50.182;11.704;2023-04-08T10:35:28;95047.27;;;6.55;45.02
77366;BME280;66430;50.182;11.704;2023-04-08T10:37:58;95051.11;;;6.55;45.33
77366;BME280;66430;50.182;11.704;2023-04-08T10:40:22;95048.14;;;7.07;44.61
77366;BME280;66430;50.182;11.704;2023-04-08T10:42:46;95047.99;;;6.77;44.26
77366;BME280;66430;50.182;11.704;2023-04-08T10:45:15;95049.01;;;6.61;45.64
77366;BME280;66430;50.182;11.704;2023-04-08T10:47:35;95051.57;;;6.63;45.48
77366;BME280;66430;50.182;11.704;2023-04-08T10:50:00;95049.98;;;6.93;45.27
77366;BME280;66430;50.182;11.704;2023-04-08T10:52:26;95051.82;;;6.72;45.30
77366;BME280;66430;50.182;11.704;2023-04-08T10:54:53;95051.71;;;6.79;45.68
77366;BME280;66430;50.182;11.704;2023-04-08T10:57:23;95058.34;;;6.43;46.87
77366;BME280;66430;50.182;11.704;2023-04-08T10:59:42;95055.57;;;6.51;45.31
77366;BME280;66430;50.182;11.704;2023-04-08T11:02:12;95051.40;;;6.70;45.43
77366;BME280;66430;50.182;11.704;2023-04-08T11:04:33;95053.83;;;7.02;45.81
77366;BME280;66430;50.182;11.704;2023-04-08T11:06:59;95049.03;;;6.63;45.65
77366;BME280;66430;50.182;11.704;2023-04-08T11:09:24;95059.80;;;6.07;46.15
77366;BME280;66430;50.182;11.704;2023-04-08T11:11:51;95052.51;;;5.92;46.40
77366;BME280;66430;50.182;11.704;2023-04-08T11:14:16;95053.67;;;6.29;46.49
77366;BME280;66430;50.182;11.704;2023-04-08T11:16:41;95052.78;;;6.40;46.45
77366;BME280;66430;50.182;11.704;2023-04-08T11:19:06;95048.14;;;6.47;46.19
77366;BME280;66430;50.182;11.704;2023-04-08T11:21:34;95060.26;;;5.84;47.13
77366;BME280;66430;50.182;11.704;2023-04-08T11:23:57;95064.37;;;6.17;47.73
77366;BME280;66430;50.182;11.704;2023-04-08T11:26:23;95062.72;;;5.85;47.49
77366;BME280;66430;50.182;11.704;2023-04-08T11:28:48;95072.02;;;5.76;47.69
77366;BME280;66430;50.182;11.704;2023-04-08T11:31:14;95069.12;;;6.11;47.38
77366;BME280;66430;50.182;11.704;2023-04-08T11:33:45;95065.86;;;6.36;47.32
77366;BME280;66430;50.182;11.704;2023-04-08T11:36:05;95063.58;;;6.10;47.63
77366;BME280;66430;50.182;11.704;2023-04-08T11:38:30;95066.24;;;5.82;47.30
77366;BME280;66430;50.182;11.704;2023-04-08T11:41:01;95064.76;;;6.19;47.35
77366;BME280;66430;50.182;11.704;2023-04-08T11:43:21;95061.70;;;6.54;47.07
77366;BME280;66430;50.182;11.704;2023-04-08T11:45:52;95064.45;;;6.61;47.04
77366;BME280;66430;50.182;11.704;2023-04-08T11:48:16;95065.51;;;6.88;46.45
77366;BME280;66430;50.182;11.704;2023-04-08T11:50:38;95065.39;;;7.05;45.62
77366;BME280;66430;50.182;11.704;2023-04-08T11:53:14;95064.31;;;7.35;44.85
77366;BME280;66430;50.182;11.704;2023-04-08T11:55:31;95064.59;;;7.11;44.39
77366;BME280;66430;50.182;11.704;2023-04-08T11:57:56;95066.78;;;6.90;43.93
77366;BME280;66430;50.182;11.704;2023-04-08T12:00:21;95067.29;;;7.39;44.91
77366;BME280;66430;50.182;11.704;2023-04-08T12:02:45;95069.35;;;7.33;44.49
77366;BME280;66430;50.182;11.704;2023-04-08T12:05:10;95074.41;;;7.23;43.90
77366;BME280;66430;50.182;11.704;2023-04-08T12:07:39;95067.00;;;6.65;43.59
77366;BME280;66430;50.182;11.704;2023-04-08T12:10:02;95076.03;;;7.14;44.74
77366;BME280;66430;50.182;11.704;2023-04-08T12:12:27;95079.26;;;6.90;44.70
77366;BME280;66430;50.182;11.704;2023-04-08T12:14:54;95077.34;;;6.81;45.31
77366;BME280;66430;50.182;11.704;2023-04-08T12:17:18;95083.62;;;6.55;45.35
77366;BME280;66430;50.182;11.704;2023-04-08T12:19:44;95084.93;;;6.51;45.85
77366;BME280;66430;50.182;11.704;2023-04-08T12:22:10;95087.86;;;6.65;46.22
77366;BME280;66430;50.182;11.704;2023-04-08T12:24:35;95090.18;;;6.63;45.50
77366;BME280;66430;50.182;11.704;2023-04-08T12:27:01;95086.86;;;6.56;45.58
77366;BME280;66430;50.182;11.704;2023-04-08T12:29:27;95084.32;;;6.80;45.94
77366;BME280;66430;50.182;11.704;2023-04-08T12:31:52;95087.34;;;6.67;45.70
77366;BME280;66430;50.182;11.704;2023-04-08T12:34:18;95087.90;;;6.54;45.62
77366;BME280;66430;50.182;11.704;2023-04-08T12:36:43;95088.55;;;6.38;45.14
77366;BME280;66430;50.182;11.704;2023-04-08T12:39:09;95092.49;;;6.42;46.20
77366;BME280;66430;50.182;11.704;2023-04-08T12:41:34;95091.20;;;7.02;46.01
77366;BME280;66430;50.182;11.704;2023-04-08T12:43:59;95090.14;;;6.88;45.50
77366;BME280;66430;50.182;11.704;2023-04-08T12:46:28;95082.07;;;7.30;45.39
77366;BME280;66430;50.182;11.704;2023-04-08T12:48:50;95080.90;;;7.31;44.49
77366;BME280;66430;50.182;11.704;2023-04-08T12:51:15;95082.28;;;7.60;43.05
77366;BME280;66430;50.182;11.704;2023-04-08T12:53:41;95080.90;;;8.53;42.84
77366;BME280;66430;50.182;11.704;2023-04-08T12:56:06;95084.18;;;7.95;43.39
77366;BME280;66430;50.182;11.704;2023-04-08T12:58:32;95077.48;;;7.77;42.91